Time;durP1;ratioP1;P1;durP2;ratioP2;P2;SDS_P1;SDS_P2;PMS_P1;PMS_P2;Temp;Humidity;BMP_temperature;BMP_pressure;BME280_temperature;BME280_humidity;BME280_pressure;Samples;Min_cycle;Max_cycle;Signal;HPM_P1;HPM_P2
2022/04/29 00:02:08;;;;;;;17.17;12.77;;;;;;;11.71;71.32;93868.06;5051107;28;20021;-38
2022/04/29 00:04:35;;;;;;;19.92;14.13;;;;;;;11.79;71.66;93871.59;5050904;28;20566;-38
2022/04/29 00:07:01;;;;;;;19.85;15.23;;;;;;;11.80;71.31;93871.06;5050817;28;20021;-38
2022/04/29 00:09:27;;;;;;;18.98;13.52;;;;;;;11.72;71.13;93873.06;5050758;28;20033;-38
2022/04/29 00:11:53;;;;;;;18.75;14.25;;;;;;;11.82;70.80;93862.22;5051000;28;20031;-38
2022/04/29 00:14:19;;;;;;;22.90;16.63;;;;;;;11.82;70.07;93871.28;5050889;28;20079;-38
2022/04/29 00:16:44;;;;;;;18.30;12.88;;;;;;;11.78;69.75;93879.16;5050876;28;20515;-38
2022/04/29 00:19:10;;;;;;;24.23;13.93;;;;;;;11.77;70.21;93880.47;5050329;28;20028;-38
2022/04/29 00:21:35;;;;;;;24.73;14.23;;;;;;;11.77;69.83;93886.00;5050940;28;20021;-38
2022/04/29 00:24:00;;;;;;;16.23;13.43;;;;;;;11.78;68.79;93881.22;5050517;28;20025;-38
2022/04/29 00:26:26;;;;;;;21.08;13.80;;;;;;;11.77;68.53;93882.47;5050458;28;20021;-38
2022/04/29 00:28:51;;;;;;;15.88;12.80;;;;;;;11.58;68.01;93854.34;5050447;28;20079;-38
2022/04/29 00:31:17;;;;;;;21.00;14.60;;;;;;;11.65;68.25;93878.53;5050677;28;20017;-38
2022/04/29 00:33:42;;;;;;;20.33;15.18;;;;;;;11.62;67.93;93877.59;5050773;28;20032;-38
2022/04/29 00:36:08;;;;;;;17.90;12.68;;;;;;;11.73;68.32;93879.31;5050486;28;20024;-38
2022/04/29 00:38:33;;;;;;;14.35;11.18;;;;;;;11.71;68.21;93879.88;5049722;28;20409;-38
2022/04/29 00:40:59;;;;;;;17.75;12.80;;;;;;;11.70;68.44;93872.84;5050223;28;20025;-38
2022/04/29 00:43:24;;;;;;;16.40;11.93;;;;;;;11.48;69.22;93865.16;5049949;28;20045;-38
2022/04/29 00:45:50;;;;;;;18.70;13.60;;;;;;;11.54;69.96;93876.81;5050194;28;20508;-38
2022/04/29 00:48:17;;;;;;;17.83;13.00;;;;;;;11.47;70.45;93874.75;5050493;28;20103;-38
2022/04/29 00:50:43;;;;;;;18.80;14.85;;;;;;;11.52;71.31;93878.63;5050165;28;20028;-38
2022/04/29 00:53:11;;;;;;;22.63;14.23;;;;;;;11.58;71.38;93865.41;5050472;28;20031;-38
2022/04/29 00:55:39;;;;;;;19.50;14.02;;;;;;;11.53;72.04;93864.25;5048877;28;20028;-38
2022/04/29 00:58:06;;;;;;;19.45;13.20;;;;;;;11.56;70.90;93867.97;5050364;28;20052;-38
2022/04/29 01:00:31;;;;;;;19.63;13.75;;;;;;;11.52;70.70;93865.53;5050041;28;20032;-38
2022/04/29 01:03:00;;;;;;;19.48;13.82;;;;;;;11.43;71.43;93875.06;5050035;28;20021;-38
2022/04/29 01:05:26;;;;;;;20.73;14.13;;;;;;;11.47;71.52;93868.47;5050033;28;20497;-38
2022/04/29 01:07:52;;;;;;;18.52;14.43;;;;;;;11.40;71.41;93867.13;5049943;28;20086;-38
2022/04/29 01:10:20;;;;;;;16.67;12.98;;;;;;;11.30;71.87;93857.88;5049939;28;20040;-38
2022/04/29 01:12:48;;;;;;;17.05;13.50;;;;;;;11.30;72.13;93864.13;5049987;28;20074;-37
2022/04/29 01:15:17;;;;;;;19.58;15.13;;;;;;;11.31;72.19;93860.09;5048500;28;20029;-38
2022/04/29 01:17:43;;;;;;;19.63;15.57;;;;;;;11.18;72.76;93864.97;5050235;28;20029;-38
2022/04/29 01:20:11;;;;;;;20.08;15.70;;;;;;;11.20;72.14;93862.41;5050078;28;20044;-38
2022/04/29 01:22:37;;;;;;;24.27;15.85;;;;;;;11.22;72.31;93857.06;5049817;28;20025;-38
2022/04/29 01:25:03;;;;;;;21.60;15.95;;;;;;;11.16;72.40;93862.75;5049816;28;20025;-38
2022/04/29 01:27:29;;;;;;;21.92;15.85;;;;;;;11.18;71.81;93860.19;5050126;28;20104;-38
2022/04/29 01:30:02;;;;;;;23.15;15.30;;;;;;;11.18;72.20;93873.25;5050104;28;20509;-38
2022/04/29 01:32:29;;;;;;;23.40;15.48;;;;;;;11.15;72.59;93861.25;5050065;28;20021;-38
2022/04/29 01:34:54;;;;;;;22.80;16.08;;;;;;;11.15;72.28;93858.50;5048831;28;20029;-38
2022/04/29 01:37:20;;;;;;;21.67;15.48;;;;;;;11.17;71.81;93861.47;5049635;28;20044;-38
2022/04/29 01:39:45;;;;;;;22.35;14.80;;;;;;;11.20;71.39;93865.16;5049783;28;20029;-38
2022/04/29 01:42:10;;;;;;;21.35;15.05;;;;;;;10.95;72.67;93862.06;5049294;28;20028;-38
2022/04/29 01:44:36;;;;;;;19.17;14.65;;;;;;;10.67;73.30;93839.91;5049498;28;20045;-38
2022/04/29 01:47:02;;;;;;;21.48;14.25;;;;;;;10.60;73.54;93860.66;5049941;28;20017;-38
2022/04/29 01:49:27;;;;;;;26.63;16.80;;;;;;;10.51;74.17;93855.59;5052165;28;20021;-38
2022/04/29 01:51:54;;;;;;;26.60;17.52;;;;;;;10.32;75.63;93859.84;5053390;28;20043;-38
2022/04/29 01:54:19;;;;;;;25.48;17.55;;;;;;;10.27;75.90;93857.94;5053512;28;20049;-38
2022/04/29 01:56:47;;;;;;;28.95;18.83;;;;;;;10.31;75.56;93858.38;5053513;28;20505;-38
2022/04/29 01:59:13;;;;;;;25.05;17.73;;;;;;;10.41;74.99;93862.13;5053240;28;20032;-38
2022/04/29 02:01:38;;;;;;;23.95;16.42;;;;;;;10.51;74.53;93849.34;5053455;28;20021;-38
2022/04/29 02:04:04;;;;;;;28.50;16.85;;;;;;;10.47;74.72;93849.69;5053170;28;20029;-38
2022/04/29 02:06:29;;;;;;;24.05;15.48;;;;;;;10.52;74.36;93851.56;5052139;28;20021;-38
2022/04/29 02:08:55;;;;;;;24.55;15.65;;;;;;;10.47;74.65;93855.19;5053373;28;20033;-38
2022/04/29 02:11:21;;;;;;;24.17;16.23;;;;;;;10.53;73.59;93830.97;5053135;28;20457;-38
2022/04/29 02:13:47;;;;;;;25.13;16.40;;;;;;;10.68;74.42;93849.66;5052967;28;20013;-38
2022/04/29 02:16:13;;;;;;;26.45;17.08;;;;;;;10.66;74.48;93838.41;5053106;28;20028;-38
2022/04/29 02:18:39;;;;;;;26.48;18.38;;;;;;;10.62;74.44;93838.78;5051721;28;20036;-38
2022/04/29 02:21:04;;;;;;;26.42;17.90;;;;;;;10.66;75.03;93839.16;5053167;28;20025;-38
2022/04/29 02:23:30;;;;;;;29.20;19.25;;;;;;;10.62;74.11;93824.97;5053072;28;20031;-38
2022/04/29 02:25:57;;;;;;;27.13;18.52;;;;;;;10.78;73.95;93839.63;5052746;28;20508;-38
2022/04/29 02:28:23;;;;;;;29.98;19.40;;;;;;;10.68;74.34;93849.66;5052708;28;20494;-38
2022/04/29 02:30:49;;;;;;;26.35;17.35;;;;;;;10.67;73.86;93845.44;5052920;28;20021;-37
2022/04/29 02:33:14;;;;;;;26.80;19.35;;;;;;;10.83;74.02;93849.06;5052571;28;20025;-38
2022/04/29 02:35:39;;;;;;;38.00;24.05;;;;;;;10.69;74.86;93853.91;5052407;28;20024;-38
2022/04/29 02:38:05;;;;;;;25.92;18.08;;;;;;;10.70;74.57;93855.38;5052764;28;20021;-38
2022/04/29 02:40:31;;;;;;;23.85;17.25;;;;;;;10.63;74.18;93854.03;5052407;28;20025;-38
2022/04/29 02:42:56;;;;;;;25.85;19.20;;;;;;;10.61;75.36;93847.59;5052179;28;20045;-38
2022/04/29 02:45:22;;;;;;;26.35;18.88;;;;;;;10.65;75.21;93848.72;5052363;28;20451;-38
2022/04/29 02:47:47;;;;;;;28.10;19.05;;;;;;;10.82;75.47;93858.63;5052613;28;20060;-38
2022/04/29 02:50:12;;;;;;;25.38;17.48;;;;;;;10.83;74.89;93863.59;5052175;28;20031;-38
2022/04/29 02:52:38;;;;;;;24.50;16.63;;;;;;;10.71;74.22;93850.59;5052263;28;20083;-38
2022/04/29 02:55:04;;;;;;;23.00;16.63;;;;;;;10.55;74.03;93855.25;5052051;28;20025;-38
2022/04/29 02:57:29;;;;;;;23.73;17.15;;;;;;;10.26;74.08;93862.00;5052365;28;20036;-38
2022/04/29 02:59:55;;;;;;;22.75;15.35;;;;;;;10.22;74.35;93861.59;5051934;28;20029;-38
2022/04/29 03:02:20;;;;;;;24.25;16.98;;;;;;;10.17;74.83;93867.97;5051874;28;20025;-38
2022/04/29 03:04:46;;;;;;;24.52;16.10;;;;;;;10.05;74.77;93872.22;5052031;28;20031;-37
2022/04/29 03:07:11;;;;;;;26.10;17.75;;;;;;;9.97;75.76;93868.63;5051896;28;20079;-38
2022/04/29 03:09:37;;;;;;;27.63;19.08;;;;;;;9.85;76.22;93862.63;5051868;28;20020;-37
2022/04/29 03:12:02;;;;;;;26.52;17.63;;;;;;;9.88;75.96;93869.81;5051765;28;20478;-38
2022/04/29 03:14:28;;;;;;;26.70;17.48;;;;;;;9.90;75.94;93873.53;5052057;28;20021;-37
2022/04/29 03:16:53;;;;;;;23.65;16.70;;;;;;;9.87;75.77;93873.84;5051721;28;20032;-38
2022/04/29 03:19:19;;;;;;;28.15;16.85;;;;;;;9.90;75.97;93879.03;5051660;28;20025;-38
2022/04/29 03:21:45;;;;;;;26.70;18.10;;;;;;;10.07;74.25;93875.91;5052031;28;20036;-38
2022/04/29 03:24:10;;;;;;;23.13;16.58;;;;;;;10.02;74.08;93876.03;5051552;28;20017;-38
2022/04/29 03:26:37;;;;;;;27.08;19.40;;;;;;;10.04;74.06;93874.22;5051571;28;20024;-38
2022/04/29 03:29:03;;;;;;;35.25;20.83;;;;;;;10.10;73.36;93871.34;5050655;28;20079;-38
2022/04/29 03:31:28;;;;;;;32.75;20.52;;;;;;;10.07;73.93;93877.94;5051851;28;20569;-37
2022/04/29 03:33:53;;;;;;;38.92;22.42;;;;;;;10.03;73.78;93883.06;5051407;28;20021;-37
2022/04/29 03:36:19;;;;;;;42.63;25.38;;;;;;;10.07;73.43;93878.66;5051241;28;20017;-38
2022/04/29 03:38:44;;;;;;;41.72;22.67;;;;;;;9.88;72.68;93850.50;5051291;28;20025;-37
2022/04/29 03:41:10;;;;;;;34.50;20.33;;;;;;;10.05;73.00;93886.72;5049610;28;20021;-38
2022/04/29 03:43:35;;;;;;;45.63;24.10;;;;;;;10.10;73.94;93885.88;5051105;28;20102;-38
2022/04/29 03:46:01;;;;;;;52.38;27.25;;;;;;;10.19;74.25;93895.75;5051420;28;20020;-37
2022/04/29 03:48:27;;;;;;;33.90;21.80;;;;;;;10.17;73.34;93893.53;5051420;28;20490;-37
2022/04/29 03:50:52;;;;;;;23.50;18.00;;;;;;;10.07;74.05;93895.22;5051349;28;20057;-38
2022/04/29 03:53:22;;;;;;;25.17;16.63;;;;;;;10.09;74.80;93889.91;5051366;28;20024;-38
2022/04/29 03:55:47;;;;;;;23.45;16.45;;;;;;;10.21;73.50;93893.19;5050943;28;20025;-37
2022/04/29 03:58:13;;;;;;;22.73;16.38;;;;;;;10.34;73.01;93895.91;5051258;28;20028;-39
2022/04/29 04:00:40;;;;;;;23.02;16.25;;;;;;;10.26;73.08;93895.84;5050918;28;20043;-38
2022/04/29 04:03:05;;;;;;;25.90;16.98;;;;;;;10.18;73.34;93894.28;5050914;28;20024;-38
2022/04/29 04:05:32;;;;;;;25.98;17.83;;;;;;;10.18;73.53;93897.03;5050809;28;20036;-38
2022/04/29 04:07:57;;;;;;;27.92;19.92;;;;;;;9.99;74.39;93877.84;5050774;28;20082;-38
2022/04/29 04:10:23;;;;;;;29.98;21.05;;;;;;;10.16;74.90;93891.28;5050798;28;20028;-37
2022/04/29 04:12:50;;;;;;;33.95;21.00;;;;;;;10.20;75.09;93900.00;5050163;28;20064;-38
2022/04/29 04:15:18;;;;;;;50.28;30.92;;;;;;;10.24;74.62;93903.94;5050919;28;20484;-37
2022/04/29 04:17:44;;;;;;;28.30;18.60;;;;;;;10.11;74.67;93895.69;5049481;28;20478;-37
2022/04/29 04:20:11;;;;;;;29.15;20.92;;;;;;;10.17;74.11;93899.06;5050838;28;20159;-37
2022/04/29 04:22:37;;;;;;;24.42;17.05;;;;;;;10.13;73.94;93898.66;5050961;28;20017;-37
2022/04/29 04:25:04;;;;;;;27.25;17.75;;;;;;;10.03;74.96;93902.38;5050793;28;20025;-38
2022/04/29 04:27:30;;;;;;;25.33;17.65;;;;;;;10.01;74.97;93907.66;5050739;28;20029;-38
2022/04/29 04:29:56;;;;;;;23.77;17.25;;;;;;;10.10;75.00;93907.94;5050478;28;20104;-38
2022/04/29 04:32:21;;;;;;;22.35;15.60;;;;;;;10.15;75.18;93906.38;5050645;28;20025;-37
2022/04/29 04:34:50;;;;;;;23.02;16.25;;;;;;;10.27;74.34;93913.13;5050680;28;20079;-37
2022/04/29 04:37:26;;;;;;;22.48;15.50;;;;;;;10.31;73.14;93908.75;5050505;28;20051;-38
2022/04/29 04:39:53;;;;;;;22.40;16.48;;;;;;;10.30;73.19;93903.78;5050587;28;20039;-37
2022/04/29 04:42:19;;;;;;;21.98;15.93;;;;;;;10.33;72.52;93911.00;5049987;28;20025;-37
2022/04/29 04:44:48;;;;;;;24.38;15.35;;;;;;;10.25;72.48;93913.66;5050096;28;20103;-37
2022/04/29 04:47:14;;;;;;;24.45;16.05;;;;;;;10.19;73.20;93909.56;5050798;28;20025;-38
2022/04/29 04:49:40;;;;;;;19.88;14.68;;;;;;;10.29;72.45;93916.84;5050230;28;20094;-38
2022/04/29 04:52:06;;;;;;;21.48;14.15;;;;;;;10.22;72.39;93914.72;5050451;28;20021;-38
2022/04/29 04:54:31;;;;;;;21.95;15.65;;;;;;;10.25;72.23;93921.19;5050092;28;20047;-37
2022/04/29 04:56:57;;;;;;;18.05;14.30;;;;;;;10.26;73.09;93915.16;5050337;28;20024;-38
2022/04/29 04:59:22;;;;;;;23.70;15.63;;;;;;;10.30;73.04;93909.31;5050064;28;20494;-38
2022/04/29 05:01:48;;;;;;;22.40;15.75;;;;;;;10.41;72.28;93909.81;5049978;28;20562;-37
2022/04/29 05:04:13;;;;;;;20.33;14.57;;;;;;;10.52;70.85;93906.78;5050271;28;20104;-38
2022/04/29 05:06:38;;;;;;;18.60;13.95;;;;;;;10.62;70.72;93910.56;5050270;28;20017;-38
2022/04/29 05:09:05;;;;;;;21.08;14.45;;;;;;;10.48;70.25;93909.13;5050251;28;20449;-38
2022/04/29 05:11:30;;;;;;;26.92;15.27;;;;;;;10.27;71.25;93908.34;5050002;28;20021;-38
2022/04/29 05:13:57;;;;;;;21.98;13.27;;;;;;;10.26;71.27;93900.63;5050283;28;20021;-37
2022/04/29 05:16:23;;;;;;;20.05;14.73;;;;;;;10.34;72.05;93902.19;5050102;28;20021;-37
2022/04/29 05:18:49;;;;;;;20.85;14.43;;;;;;;10.44;70.57;93907.97;5049850;28;20021;-37
2022/04/29 05:21:14;;;;;;;20.58;14.60;;;;;;;10.44;71.46;93907.97;5049928;28;20028;-38
2022/04/29 05:23:40;;;;;;;19.48;13.95;;;;;;;10.51;70.80;93905.28;5049778;28;20020;-38
2022/04/29 05:26:05;;;;;;;21.90;14.93;;;;;;;10.71;70.74;93914.88;5054067;28;20017;-38
2022/04/29 05:28:31;;;;;;;19.13;14.05;;;;;;;10.90;70.18;93911.91;5054129;28;20432;-37
2022/04/29 05:30:57;;;;;;;22.20;15.25;;;;;;;10.96;69.60;93907.00;5053718;28;20052;-38
2022/04/29 05:33:23;;;;;;;21.02;14.93;;;;;;;10.97;69.62;93914.75;5053610;28;20020;-37
2022/04/29 05:35:49;;;;;;;18.40;13.07;;;;;;;11.13;68.24;93918.38;5053636;28;20025;-37
2022/04/29 05:38:14;;;;;;;21.92;14.63;;;;;;;11.12;68.65;93916.88;5052727;28;20108;-37
2022/04/29 05:43:24;;;;;;;16.60;13.00;;;;;;;11.72;65.71;93906.25;5053215;28;20068;-38
2022/04/29 05:45:49;;;;;;;15.85;13.20;;;;;;;11.83;65.07;93905.19;5053792;28;20021;-38
2022/04/29 05:48:15;;;;;;;17.05;12.68;;;;;;;11.83;65.37;93907.94;5053762;28;20025;-38
2022/04/29 05:50:41;;;;;;;17.63;12.25;;;;;;;11.85;65.10;93903.34;5053663;28;20441;-38
2022/04/29 05:53:06;;;;;;;17.67;13.45;;;;;;;11.89;65.64;93892.69;5053401;28;20028;-38
2022/04/29 05:55:31;;;;;;;15.13;11.82;;;;;;;12.30;64.31;93908.31;5053233;28;20029;-38
2022/04/29 05:57:57;;;;;;;15.45;12.70;;;;;;;12.59;63.34;93911.72;5068664;28;20024;-38
2022/04/29 06:00:22;;;;;;;17.20;12.38;;;;;;;12.81;62.72;93891.66;5053468;28;20028;-38
2022/04/29 06:02:48;;;;;;;14.20;11.88;;;;;;;13.19;62.37;93906.28;5053522;28;20545;-38
2022/04/29 06:05:13;;;;;;;15.55;11.85;;;;;;;13.21;59.56;93916.84;5053181;28;20091;-38
2022/04/29 06:07:41;;;;;;;17.27;13.55;;;;;;;13.29;60.65;93921.09;5053180;28;20025;-38
2022/04/29 06:10:07;;;;;;;16.67;12.10;;;;;;;13.60;60.62;93916.22;5053089;28;20036;-38
2022/04/29 06:12:40;;;;;;;13.48;11.77;;;;;;;13.75;59.39;93921.03;5052974;28;20478;-38
2022/04/29 06:15:06;;;;;;;15.48;12.07;;;;;;;13.89;58.57;93917.47;5052894;28;20112;-38
2022/04/29 06:17:32;;;;;;;19.77;12.57;;;;;;;14.04;60.01;93925.75;5052978;28;20035;-38
2022/04/29 06:19:57;;;;;;;17.15;13.15;;;;;;;14.02;59.25;93924.84;5052963;28;20021;-38
2022/04/29 06:22:23;;;;;;;18.70;13.82;;;;;;;14.01;58.77;93931.69;5053153;28;20028;-38
2022/04/29 06:24:50;;;;;;;16.25;12.63;;;;;;;13.96;57.77;93913.19;5053079;28;20049;-38
2022/04/29 06:27:15;;;;;;;22.08;13.88;;;;;;;13.88;58.97;93924.31;5052732;28;20033;-38
2022/04/29 06:29:41;;;;;;;11.77;10.52;;;;;;;13.86;56.75;93917.88;5052697;28;20021;-38
2022/04/29 06:32:07;;;;;;;15.50;12.70;;;;;;;13.79;58.09;93935.25;5052650;28;20075;-38
2022/04/29 06:34:33;;;;;;;18.92;12.90;;;;;;;14.02;59.67;93930.38;5052182;28;20026;-38
2022/04/29 06:36:58;;;;;;;27.17;16.92;;;;;;;14.07;59.03;93932.97;5051859;28;20025;-38
2022/04/29 06:39:24;;;;;;;25.30;14.43;;;;;;;14.05;58.51;93918.91;5052754;28;20021;-38
2022/04/29 06:41:49;;;;;;;20.70;14.90;;;;;;;14.32;58.44;93931.06;5052128;28;20016;-38
2022/04/29 06:44:15;;;;;;;18.85;13.32;;;;;;;14.53;55.95;93935.59;5052298;28;20041;-38
2022/04/29 06:46:41;;;;;;;14.85;12.80;;;;;;;14.75;55.85;93929.91;5052682;28;20028;-38
2022/04/29 06:49:06;;;;;;;18.85;11.98;;;;;;;15.26;57.33;93926.63;5052276;28;20021;-38
2022/04/29 06:51:31;;;;;;;15.00;11.82;;;;;;;15.55;53.04;93935.31;5052262;28;20021;-38
2022/04/29 06:53:57;;;;;;;15.32;12.35;;;;;;;15.73;53.40;93937.56;5067596;28;20091;-39
2022/04/29 06:56:22;;;;;;;12.73;10.68;;;;;;;15.91;53.77;93930.72;5052387;28;20136;-38
2022/04/29 06:58:49;;;;;;;19.85;13.90;;;;;;;15.81;53.03;93938.22;5052211;28;20024;-38
2022/04/29 07:01:14;;;;;;;42.88;26.38;;;;;;;15.89;53.37;93938.16;5052370;28;20027;-38
2022/04/29 07:03:40;;;;;;;17.25;12.95;;;;;;;16.14;53.88;93929.72;5052083;28;20013;-38
2022/04/29 07:06:06;;;;;;;11.82;10.55;;;;;;;16.87;52.52;93925.13;5052273;28;20024;-38
2022/04/29 07:08:32;;;;;;;12.38;10.77;;;;;;;17.69;49.76;93903.59;5052191;28;20032;-38
2022/04/29 07:10:58;;;;;;;12.18;10.55;;;;;;;18.28;49.48;93921.91;5051953;28;20028;-38
2022/04/29 07:13:23;;;;;;;34.03;12.65;;;;;;;18.61;47.25;93918.06;5051847;28;20020;-38
2022/04/29 07:15:49;;;;;;;11.30;9.85;;;;;;;19.06;45.57;93919.16;5052057;28;20040;-38
2022/04/29 07:18:15;;;;;;;13.88;11.48;;;;;;;19.40;44.67;93918.78;5052016;28;20055;-38
2022/04/29 07:20:41;;;;;;;11.15;9.95;;;;;;;19.56;43.74;93925.50;5050470;28;20017;-38
2022/04/29 07:23:06;;;;;;;12.55;10.15;;;;;;;19.75;43.98;93919.03;5051971;28;20090;-38
2022/04/29 07:25:32;;;;;;;17.27;11.70;;;;;;;20.05;43.42;93923.16;5051845;28;20497;-38
2022/04/29 07:27:57;;;;;;;13.18;11.23;;;;;;;20.66;42.23;93919.47;5051916;28;20483;-39
2022/04/29 07:30:23;;;;;;;9.95;7.68;;;;;;;20.76;39.95;93920.09;5051457;28;20044;-39
2022/04/29 07:32:48;;;;;;;10.65;8.98;;;;;;;21.28;38.80;93925.50;5051548;28;20035;-39
2022/04/29 07:43:26;;;;;;;9.55;8.40;;;;;;;22.50;38.57;93916.00;5051030;28;20056;-39
2022/04/29 07:45:52;;;;;;;10.50;9.40;;;;;;;22.41;37.66;93919.00;5051531;28;20021;-39
2022/04/29 07:48:18;;;;;;;11.57;9.38;;;;;;;22.24;37.71;93925.75;5051315;28;20056;-39
2022/04/29 07:50:44;;;;;;;10.35;8.88;;;;;;;22.69;36.30;93905.81;5051061;28;20032;-39
2022/04/29 07:53:09;;;;;;;11.27;9.23;;;;;;;23.48;36.86;93916.53;5051431;28;20028;-39
2022/04/29 07:55:35;;;;;;;10.48;9.38;;;;;;;23.24;36.71;93916.66;5050919;28;20530;-39
2022/04/29 07:58:03;;;;;;;8.75;7.93;;;;;;;23.67;36.36;93913.34;5050960;28;20071;-37
2022/04/29 08:00:31;;;;;;;8.50;7.57;;;;;;;23.95;34.00;93904.25;5051301;28;20033;-37
2022/04/29 08:02:57;;;;;;;8.32;7.53;;;;;;;23.88;35.41;93913.78;5051244;28;20096;-37
2022/04/29 08:05:22;;;;;;;7.85;7.13;;;;;;;24.68;32.49;93899.50;5050907;28;20482;-37
2022/04/29 08:07:48;;;;;;;9.65;7.03;;;;;;;25.29;31.36;93909.53;5051159;28;20024;-37
2022/04/29 08:10:13;;;;;;;8.90;8.00;;;;;;;26.42;33.19;93908.97;5050733;28;20424;-38
2022/04/29 08:12:39;;;;;;;8.25;7.20;;;;;;;27.74;30.37;93915.75;5050815;28;20025;-37
2022/04/29 08:15:05;;;;;;;9.07;8.18;;;;;;;28.89;27.99;93905.66;5050909;28;20031;-38
2022/04/29 08:17:31;;;;;;;9.82;8.82;;;;;;;27.92;27.90;93919.22;5050723;28;20560;-37
2022/04/29 08:19:58;;;;;;;9.43;8.05;;;;;;;26.57;30.58;93921.63;5049747;28;20055;-37
2022/04/29 08:22:24;;;;;;;12.45;9.40;;;;;;;25.21;32.20;93917.63;5050566;28;20041;-37
2022/04/29 08:24:50;;;;;;;12.50;7.93;;;;;;;23.71;32.09;93894.56;5050561;28;20036;-39
2022/04/29 08:27:15;;;;;;;9.85;8.93;;;;;;;22.53;36.99;93914.06;5050516;28;20033;-37
2022/04/29 08:29:41;;;;;;;8.93;8.02;;;;;;;21.94;37.57;93918.34;5050497;28;20074;-38
2022/04/29 08:32:07;;;;;;;12.55;8.57;;;;;;;21.27;38.88;93918.44;5050709;28;20070;-38
2022/04/29 08:34:33;;;;;;;8.98;8.07;;;;;;;20.77;40.10;93911.06;5050701;28;20024;-38
2022/04/29 08:37:03;;;;;;;8.80;7.90;;;;;;;19.91;41.30;93911.00;5050644;28;20629;-39
2022/04/29 08:39:29;;;;;;;10.13;8.13;;;;;;;19.08;43.08;93916.50;5050418;28;20021;-38
2022/04/29 08:42:01;;;;;;;8.60;7.40;;;;;;;18.84;44.24;93903.63;5049979;28;20043;-38
2022/04/29 08:44:30;;;;;;;10.43;8.65;;;;;;;18.84;44.13;93909.22;5050119;28;20051;-38
2022/04/29 08:46:56;;;;;;;8.45;7.63;;;;;;;18.70;43.79;93914.53;5050236;28;20029;-38
2022/04/29 08:49:23;;;;;;;8.70;7.10;;;;;;;18.47;43.88;93902.34;5050484;28;20484;-38
2022/04/29 08:51:48;;;;;;;17.15;11.18;;;;;;;18.73;45.10;93904.94;5050525;28;20020;-38
2022/04/29 08:58:36;;;;;;;18.10;12.55;;;;;;;19.18;44.17;93889.22;5050151;28;20422;-38
2022/04/29 08:59:46;;;;;;;11.10;9.07;;;;;;;18.61;45.44;93894.97;5048950;28;20036;-38
2022/04/29 09:02:12;;;;;;;10.20;8.68;;;;;;;18.55;45.96;93888.94;5048846;28;20024;-39
2022/04/29 09:04:39;;;;;;;10.57;8.55;;;;;;;18.69;45.33;93896.28;5050087;28;20490;-38
2022/04/29 09:07:05;;;;;;;12.40;10.35;;;;;;;18.45;44.90;93891.03;5049958;28;20021;-39
2022/04/29 09:09:30;;;;;;;11.80;8.85;;;;;;;18.60;44.99;93905.41;5050012;28;20086;-39
2022/04/29 09:12:16;;;;;;;12.93;9.73;;;;;;;18.70;46.48;93894.22;5050072;28;20024;-38
2022/04/29 09:14:42;;;;;;;10.00;8.68;;;;;;;18.70;44.06;93894.97;5049974;28;20552;-39
2022/04/29 09:17:25;;;;;;;11.00;8.27;;;;;;;18.37;45.46;93882.75;5050166;28;20021;-38
2022/04/29 09:19:51;;;;;;;11.50;8.57;;;;;;;18.53;45.94;93897.19;5049965;28;20024;-38
2022/04/29 09:22:17;;;;;;;10.13;7.97;;;;;;;18.47;45.10;93889.13;5050217;28;20037;-38
2022/04/29 09:24:42;;;;;;;9.30;7.47;;;;;;;18.62;44.83;93883.19;5049826;28;20491;-38
2022/04/29 09:27:08;;;;;;;10.65;8.75;;;;;;;18.87;44.88;93883.56;5048583;28;20029;-38
2022/04/29 09:29:40;;;;;;;12.25;9.00;;;;;;;19.05;45.50;93886.91;5049840;28;20029;-38
2022/04/29 09:32:06;;;;;;;9.60;7.28;;;;;;;19.37;43.61;93869.56;5048648;28;20060;-38
2022/04/29 09:34:53;;;;;;;8.63;7.65;;;;;;;20.00;42.02;93876.56;5050077;28;20029;-39
2022/04/29 09:37:22;;;;;;;11.15;7.55;;;;;;;20.14;41.30;93883.84;5050090;28;20020;-39
2022/04/29 09:39:54;;;;;;;8.73;7.40;;;;;;;19.93;42.24;93850.22;5049994;28;20083;-39
2022/04/29 09:42:20;;;;;;;9.43;8.02;;;;;;;20.46;41.78;93882.44;5049432;28;20111;-38
2022/04/29 09:44:45;;;;;;;11.55;9.40;;;;;;;20.75;41.37;93885.69;5049530;28;20582;-37
2022/04/29 09:47:21;;;;;;;9.85;7.75;;;;;;;20.87;41.13;93880.13;5049650;28;20017;-36
2022/04/29 09:49:55;;;;;;;11.32;8.30;;;;;;;20.61;40.08;93887.63;5049938;28;20463;-37
2022/04/29 09:52:22;;;;;;;9.23;8.02;;;;;;;20.72;40.92;93889.00;5049631;28;20017;-39
2022/04/29 09:54:48;;;;;;;14.60;10.98;;;;;;;20.60;41.99;93886.13;5049627;28;20028;-39
2022/04/29 09:57:15;;;;;;;12.32;8.77;;;;;;;20.30;41.85;93898.94;5049417;28;20021;-39
2022/04/29 09:59:49;;;;;;;11.63;9.88;;;;;;;20.13;42.54;93895.66;5049912;28;20036;-39
2022/04/29 10:02:18;;;;;;;12.23;9.77;;;;;;;20.02;42.61;93887.91;5049477;28;20532;-38
2022/04/29 10:04:45;;;;;;;11.70;9.38;;;;;;;19.93;43.66;93883.09;5049503;28;20521;-39
2022/04/29 10:07:13;;;;;;;10.55;9.48;;;;;;;19.59;42.98;93893.50;5049722;28;20021;-38
2022/04/29 10:09:41;;;;;;;10.23;8.63;;;;;;;19.11;43.48;93881.72;5049447;28;20020;-39
2022/04/29 10:12:13;;;;;;;12.82;9.57;;;;;;;18.81;44.07;93888.75;5052963;28;20035;-38
2022/04/29 10:14:40;;;;;;;12.80;10.15;;;;;;;18.39;45.91;93893.34;5053052;28;20021;-38
2022/04/29 10:22:53;;;;;;;12.27;10.43;;;;;;;17.66;48.78;93890.81;5053178;28;20035;-38
2022/04/29 10:25:26;;;;;;;15.40;12.00;;;;;;;17.67;47.91;93892.25;5052787;28;20486;-38
2022/04/29 10:27:52;;;;;;;13.77;11.23;;;;;;;17.57;49.08;93890.75;5051866;28;20099;-38
2022/04/29 10:30:27;;;;;;;14.20;11.52;;;;;;;17.62;47.98;93884.91;5053057;28;20036;-39
2022/04/29 10:33:09;;;;;;;13.88;10.63;;;;;;;17.80;48.89;93883.47;5052633;28;20521;-38
2022/04/29 10:35:45;;;;;;;25.65;14.80;;;;;;;18.08;46.69;93876.44;5051660;28;20024;-38
2022/04/29 10:38:26;;;;;;;11.70;10.30;;;;;;;18.37;46.86;93882.75;5052420;28;20128;-38
2022/04/29 10:41:14;;;;;;;13.20;10.93;;;;;;;18.99;46.14;93869.72;5052540;28;20025;-39
2022/04/29 10:43:47;;;;;;;11.75;10.20;;;;;;;19.43;45.19;93869.97;5052278;28;20525;-38
2022/04/29 10:46:36;;;;;;;13.55;10.05;;;;;;;20.04;44.43;93862.81;5052692;28;20057;-38
2022/04/29 10:49:22;;;;;;;11.65;8.70;;;;;;;20.40;42.78;93865.19;5052335;28;20032;-38
2022/04/29 10:52:00;;;;;;;14.38;9.80;;;;;;;20.46;42.32;93864.88;5052622;28;20027;-39
2022/04/29 10:54:35;;;;;;;15.10;10.15;;;;;;;20.61;41.09;93865.16;5052645;28;20419;-39
2022/04/29 10:57:02;;;;;;;11.50;8.57;;;;;;;20.80;40.86;93864.22;5052418;28;20025;-39
2022/04/29 10:59:28;;;;;;;9.98;8.98;;;;;;;20.92;40.41;93862.91;5052476;28;20028;-38
2022/04/29 11:02:08;;;;;;;9.70;8.75;;;;;;;20.39;40.16;93852.53;5051062;28;20124;-39
2022/04/29 11:04:34;;;;;;;11.60;9.85;;;;;;;20.42;42.67;93865.34;5052338;28;20025;-38
2022/04/29 11:07:00;;;;;;;12.13;9.10;;;;;;;20.69;39.82;93853.72;5052331;28;20048;-38
2022/04/29 11:09:56;;;;;;;11.35;9.02;;;;;;;20.87;40.78;93855.59;5051979;28;20102;-39
2022/04/29 11:12:41;;;;;;;9.73;8.73;;;;;;;20.89;41.15;93849.38;5049810;28;20033;-38
2022/04/29 11:15:11;;;;;;;9.95;8.95;;;;;;;20.71;40.96;93837.00;5052098;28;20082;-38
2022/04/29 11:17:38;;;;;;;11.52;8.95;;;;;;;20.67;41.08;93845.16;5052130;28;20020;-39
2022/04/29 11:20:20;;;;;;;8.82;7.93;;;;;;;20.70;41.95;93838.34;5051962;28;20032;-38
2022/04/29 11:25:53;;;;;;;11.63;9.57;;;;;;;20.56;39.86;93818.56;5051955;28;20028;-39
2022/04/29 11:28:19;;;;;;;10.15;8.88;;;;;;;20.45;41.00;93836.06;5051719;28;20640;-38
2022/04/29 11:30:46;;;;;;;12.02;9.30;;;;;;;20.16;40.47;93835.59;5051827;28;20479;-39
2022/04/29 11:33:12;;;;;;;11.05;9.55;;;;;;;20.12;41.35;93826.91;5051870;28;20021;-38
2022/04/29 11:35:38;;;;;;;13.32;11.23;;;;;;;20.10;44.14;93816.28;5051372;28;20057;-39
2022/04/29 11:38:04;;;;;;;13.80;9.25;;;;;;;19.58;41.92;93826.84;5051347;28;20075;-39
2022/04/29 11:40:29;;;;;;;11.07;7.55;;;;;;;19.38;41.81;93828.31;5051721;28;20021;-38
2022/04/29 11:42:55;;;;;;;10.82;8.63;;;;;;;19.55;44.83;93828.81;5050725;28;20575;-38
2022/04/29 11:45:22;;;;;;;13.23;9.73;;;;;;;19.55;42.52;93823.19;5051648;28;20024;-39